createdAt,value
2018-09-20T00:02:45.110Z,99.90
2018-09-20T00:05:56.250Z,99.90
2018-09-20T00:09:08.645Z,99.90
2018-09-20T00:12:20.662Z,99.90
2018-09-20T00:15:38.831Z,99.90
2018-09-20T00:18:50.400Z,99.90
2018-09-20T00:22:02.122Z,99.90
2018-09-20T00:25:13.906Z,99.90
2018-09-20T00:28:24.983Z,99.90
2018-09-20T00:31:36.925Z,99.90
2018-09-20T00:34:48.538Z,99.90
2018-09-20T00:38:00.475Z,99.90
2018-09-20T00:41:11.746Z,99.90
2018-09-20T00:44:22.895Z,99.90
2018-09-20T00:47:34.762Z,99.90
2018-09-20T00:50:46.400Z,99.90
2018-09-20T00:53:58.451Z,99.90
2018-09-20T00:57:10.433Z,99.90
2018-09-20T01:00:21.879Z,99.90
2018-09-20T01:03:33.768Z,99.90
2018-09-20T01:06:45.700Z,99.90
2018-09-20T01:09:56.976Z,99.90
2018-09-20T01:13:08.118Z,99.90
2018-09-20T01:16:19.310Z,99.90
2018-09-20T01:19:31.223Z,99.90
2018-09-20T01:22:43.186Z,99.90
2018-09-20T01:25:54.465Z,99.90
2018-09-20T01:29:06.285Z,99.90
2018-09-20T01:32:17.620Z,99.90
2018-09-20T01:35:29.715Z,99.90
2018-09-20T01:38:41.988Z,99.90
2018-09-20T01:41:53.110Z,99.90
2018-09-20T01:45:05.740Z,99.90
2018-09-20T01:48:17.354Z,99.90
2018-09-20T01:51:28.593Z,99.90
2018-09-20T01:54:40.634Z,99.90
2018-09-20T01:57:52.648Z,99.90
2018-09-20T02:01:04.548Z,99.90
2018-09-20T02:04:16.431Z,99.90
2018-09-20T02:07:28.223Z,99.90
2018-09-20T02:10:39.917Z,99.90
2018-09-20T02:13:51.105Z,99.90
2018-09-20T02:17:03.119Z,99.90
2018-09-20T02:20:14.222Z,99.90
2018-09-20T02:23:25.666Z,99.90
2018-09-20T02:26:37.608Z,99.90
2018-09-20T02:29:49.190Z,99.90
2018-09-20T02:33:00.878Z,99.90
2018-09-20T02:36:12.881Z,99.90
2018-09-20T02:39:24.495Z,99.90
2018-09-20T02:42:35.784Z,99.90
2018-09-20T02:45:46.905Z,99.90
2018-09-20T02:48:58.008Z,99.90
2018-09-20T02:52:09.560Z,99.90
2018-09-20T02:55:21.417Z,99.90
2018-09-20T02:58:33.442Z,99.90
2018-09-20T03:01:44.923Z,99.90
2018-09-20T03:04:56.273Z,99.90
2018-09-20T03:08:08.426Z,99.90
2018-09-20T03:11:19.969Z,99.90
2018-09-20T03:14:32.030Z,99.90
2018-09-20T03:17:43.138Z,99.90
2018-09-20T03:20:54.976Z,99.90
2018-09-20T03:24:07.088Z,99.90
2018-09-20T03:27:18.924Z,99.90
2018-09-20T03:30:30.621Z,99.90
2018-09-20T03:33:42.346Z,99.90
2018-09-20T03:36:53.785Z,99.90
2018-09-20T03:40:05.377Z,99.90
2018-09-20T03:43:17.243Z,99.90
2018-09-20T03:46:29.176Z,99.90
2018-09-20T03:49:40.344Z,99.90
2018-09-20T03:52:51.462Z,99.90
2018-09-20T03:56:03.240Z,99.90
2018-09-20T03:59:14.840Z,99.90
2018-09-20T04:02:26.836Z,99.90
2018-09-20T04:05:37.970Z,99.90
2018-09-20T04:08:49.222Z,99.90
2018-09-20T04:12:01.233Z,99.90
2018-09-20T04:15:13.266Z,99.90
2018-09-20T04:18:24.373Z,99.90
2018-09-20T04:21:36.442Z,99.90
2018-09-20T04:24:47.504Z,99.90
2018-09-20T04:27:58.764Z,99.90
2018-09-20T04:31:09.953Z,99.90
2018-09-20T04:34:21.113Z,99.90
2018-09-20T04:37:33.023Z,99.90
2018-09-20T04:40:44.479Z,99.90
2018-09-20T04:43:56.452Z,99.90
2018-09-20T04:47:07.783Z,99.90
2018-09-20T04:50:18.888Z,99.90
2018-09-20T04:53:30.672Z,99.90
2018-09-20T04:56:42.677Z,99.90
2018-09-20T04:59:54.670Z,99.90
2018-09-20T05:03:06.811Z,99.90
2018-09-20T05:06:18.840Z,99.90
2018-09-20T05:09:30.079Z,99.90
2018-09-20T05:12:42.608Z,99.90
2018-09-20T05:15:53.766Z,99.90
2018-09-20T05:19:05.569Z,99.90
2018-09-20T05:22:17.341Z,99.90
2018-09-20T05:25:28.528Z,99.90
2018-09-20T05:28:40.484Z,99.90
2018-09-20T05:31:51.774Z,99.90
2018-09-20T05:35:03.803Z,99.90
2018-09-20T05:38:16.966Z,99.90
2018-09-20T05:41:28.110Z,99.90
2018-09-20T05:44:39.308Z,99.90
2018-09-20T05:47:50.366Z,99.90
2018-09-20T05:51:01.820Z,99.90
2018-09-20T05:54:13.090Z,99.90
2018-09-20T05:57:24.510Z,99.90
2018-09-20T06:00:36.935Z,99.90
2018-09-20T06:03:48.571Z,99.90
2018-09-20T06:06:59.692Z,99.90
2018-09-20T06:10:10.794Z,99.90
2018-09-20T06:13:21.958Z,99.90
2018-09-20T06:16:33.401Z,99.90
2018-09-20T06:19:45.256Z,99.90
2018-09-20T06:22:56.535Z,99.90
2018-09-20T06:26:07.712Z,99.90
2018-09-20T06:29:19.117Z,99.90
2018-09-20T06:32:31.049Z,99.90
2018-09-20T06:35:42.436Z,99.90
2018-09-20T06:38:54.773Z,99.90
2018-09-20T06:42:06.903Z,99.90
2018-09-20T06:45:50.115Z,99.90
2018-09-20T06:49:02.085Z,99.90
2018-09-20T06:52:13.983Z,99.90
2018-09-20T06:55:26.503Z,99.90
2018-09-20T06:58:37.518Z,99.90
2018-09-20T07:01:49.402Z,99.90
2018-09-20T07:05:00.536Z,99.90
2018-09-20T07:08:12.526Z,99.90
2018-09-20T07:11:24.350Z,99.90
2018-09-20T07:14:36.235Z,99.90
2018-09-20T07:17:48.183Z,99.90
2018-09-20T07:21:00.129Z,99.90
2018-09-20T07:24:11.829Z,99.90
2018-09-20T07:27:23.619Z,99.90
2018-09-20T07:30:35.560Z,99.90
2018-09-20T07:33:47.443Z,99.90
2018-09-20T07:36:59.433Z,99.90
2018-09-20T07:40:11.657Z,99.90
2018-09-20T07:43:23.010Z,99.90
2018-09-20T07:46:34.302Z,99.90
2018-09-20T07:49:45.977Z,99.90
2018-09-20T07:52:58.420Z,99.90
2018-09-20T07:56:09.732Z,99.90
2018-09-20T07:59:20.820Z,99.90
2018-09-20T08:02:32.625Z,99.90
2018-09-20T08:05:44.189Z,99.90
2018-09-20T08:08:55.280Z,99.90
2018-09-20T08:12:06.999Z,99.90
2018-09-20T08:15:18.521Z,99.90
2018-09-20T08:18:30.249Z,99.90
2018-09-20T08:21:41.219Z,99.90
2018-09-20T08:24:52.967Z,99.90
2018-09-20T08:28:03.968Z,99.90
2018-09-20T08:31:14.792Z,99.90
2018-09-20T08:34:25.721Z,99.90
2018-09-20T08:37:36.738Z,99.90
2018-09-20T08:40:49.235Z,99.90
2018-09-20T08:44:00.386Z,99.90
2018-09-20T08:47:11.387Z,99.90
2018-09-20T08:50:22.329Z,99.90
2018-09-20T08:53:33.257Z,99.90
2018-09-20T08:56:44.440Z,99.90
2018-09-20T08:59:56.281Z,99.90
2018-09-20T09:03:07.220Z,99.90
2018-09-20T09:06:19.172Z,99.90
2018-09-20T09:09:30.633Z,99.90
2018-09-20T09:12:41.422Z,99.90
2018-09-20T09:15:53.269Z,99.90
2018-09-20T09:19:04.101Z,99.90
2018-09-20T09:22:15.096Z,99.90
2018-09-20T09:25:25.979Z,99.90
2018-09-20T09:28:37.631Z,99.90
2018-09-20T09:31:48.640Z,99.90
2018-09-20T09:34:59.410Z,99.90
2018-09-20T09:38:10.497Z,99.90
2018-09-20T09:41:22.769Z,99.90
2018-09-20T09:44:34.114Z,99.90
2018-09-20T09:47:45.277Z,99.90
2018-09-20T09:50:56.205Z,99.90
2018-09-20T09:54:07.635Z,99.90
2018-09-20T09:57:19.380Z,99.90
2018-09-20T10:00:33.934Z,99.90
2018-09-20T10:03:45.003Z,99.90
2018-09-20T10:06:56.168Z,99.90
2018-09-20T10:10:07.741Z,99.90
2018-09-20T10:13:19.137Z,99.90
2018-09-20T10:16:30.931Z,99.90
2018-09-20T10:19:42.167Z,99.90
2018-09-20T10:22:53.101Z,99.90
2018-09-20T10:26:03.991Z,99.90
2018-09-20T10:29:14.998Z,99.80
2018-09-20T10:32:26.636Z,99.80
2018-09-20T10:35:37.525Z,99.00
2018-09-20T10:38:48.351Z,98.50
2018-09-20T10:42:00.281Z,98.40
2018-09-20T10:45:12.096Z,98.30
2018-09-20T10:48:23.088Z,97.40
2018-09-20T10:51:35.413Z,97.60
2018-09-20T10:54:46.883Z,97.40
2018-09-20T10:57:57.642Z,97.10
2018-09-20T11:01:08.499Z,97.40
2018-09-20T11:04:19.445Z,97.40
2018-09-20T11:07:30.188Z,97.40
2018-09-20T11:10:41.190Z,96.30
2018-09-20T11:13:52.809Z,96.30
2018-09-20T11:17:04.156Z,96.00
2018-09-20T11:20:15.646Z,95.20
2018-09-20T11:23:27.519Z,93.80
2018-09-20T11:26:38.322Z,94.30
2018-09-20T11:29:49.989Z,93.80
2018-09-20T11:33:01.666Z,92.50
2018-09-20T11:36:13.418Z,91.50
2018-09-20T11:39:24.127Z,91.30
2018-09-20T11:42:35.362Z,91.40
2018-09-20T11:45:46.818Z,89.90
2018-09-20T11:48:57.690Z,90.30
2018-09-20T11:52:08.710Z,90.50
2018-09-20T11:55:19.627Z,90.90
2018-09-20T11:58:30.646Z,91.60
2018-09-20T12:01:41.505Z,92.20
2018-09-20T12:04:52.529Z,92.70
2018-09-20T12:08:03.480Z,92.90
2018-09-20T12:11:14.286Z,92.90
2018-09-20T12:14:26.043Z,93.10
2018-09-20T12:17:36.993Z,93.10
2018-09-20T12:20:47.894Z,92.90
2018-09-20T12:23:58.852Z,91.90
2018-09-20T12:27:09.716Z,91.60
2018-09-20T12:30:20.756Z,91.50
2018-09-20T12:33:31.838Z,91.20
2018-09-20T12:36:42.676Z,91.50
2018-09-20T12:39:53.980Z,91.20
2018-09-20T12:43:06.280Z,90.00
2018-09-20T12:46:17.236Z,91.00
2018-09-20T12:49:28.275Z,90.20
2018-09-20T12:52:39.227Z,89.60
2018-09-20T12:55:50.847Z,89.40
2018-09-20T12:59:01.802Z,89.90
2018-09-20T13:02:13.467Z,90.20
2018-09-20T13:05:24.467Z,90.20
2018-09-20T13:08:35.272Z,90.50
2018-09-20T13:11:46.502Z,90.20
2018-09-20T13:14:57.921Z,90.50
2018-09-20T13:18:09.651Z,90.10
2018-09-20T13:21:21.239Z,88.10
2018-09-20T13:24:32.818Z,88.20
2018-09-20T13:27:43.927Z,88.50
2018-09-20T13:30:54.753Z,88.30
2018-09-20T13:34:06.773Z,87.70
2018-09-20T13:37:18.383Z,87.80
2018-09-20T13:40:30.065Z,86.70
2018-09-20T13:43:41.299Z,86.40
2018-09-20T13:46:53.042Z,86.50
2018-09-20T13:50:04.530Z,86.70
2018-09-20T13:53:16.311Z,86.60
2018-09-20T13:56:28.116Z,84.30
2018-09-20T13:59:39.842Z,84.30
2018-09-20T14:02:51.604Z,82.50
2018-09-20T14:06:03.277Z,81.60
2018-09-20T14:09:15.110Z,81.10
2018-09-20T14:12:26.401Z,82.70
2018-09-20T14:15:37.854Z,82.90
2018-09-20T14:18:49.024Z,81.30
2018-09-20T14:22:00.576Z,82.50
2018-09-20T14:25:11.761Z,81.80
2018-09-20T14:28:22.745Z,81.40
2018-09-20T14:31:34.566Z,82.10
2018-09-20T14:34:46.128Z,81.10
2018-09-20T14:37:56.956Z,79.00
2018-09-20T14:41:07.966Z,79.60
2018-09-20T14:44:20.128Z,78.90
2018-09-20T14:47:31.388Z,80.50
2018-09-20T14:50:42.563Z,79.40
2018-09-20T14:53:53.594Z,79.70
2018-09-20T14:57:04.468Z,80.50
2018-09-20T15:00:15.918Z,80.20
2018-09-20T15:03:27.257Z,80.90
2018-09-20T15:06:38.364Z,81.00
2018-09-20T15:09:49.443Z,80.10
2018-09-20T15:13:00.483Z,80.20
2018-09-20T15:16:11.444Z,80.70
2018-09-20T15:19:23.583Z,81.60
2018-09-20T15:22:35.079Z,80.70
2018-09-20T15:25:46.025Z,80.50
2018-09-20T15:28:57.670Z,81.30
2018-09-20T15:32:10.056Z,82.10
2018-09-20T15:35:21.083Z,81.90
2018-09-20T15:38:32.212Z,83.20
2018-09-20T15:41:43.793Z,82.70
2018-09-20T15:44:55.898Z,82.90
2018-09-20T15:48:07.368Z,84.50
2018-09-20T15:51:19.116Z,84.00
2018-09-20T15:54:30.610Z,84.70
2018-09-20T15:57:41.528Z,86.10
2018-09-20T16:00:52.405Z,86.00
2018-09-20T16:04:03.511Z,85.60
2018-09-20T16:07:14.660Z,86.00
2018-09-20T16:10:26.291Z,86.30
2018-09-20T16:13:38.317Z,87.10
2018-09-20T16:16:50.046Z,87.70
2018-09-20T16:20:01.927Z,88.10
2018-09-20T16:23:12.829Z,89.00
2018-09-20T16:26:23.809Z,89.50
2018-09-20T16:29:44.311Z,89.90
2018-09-20T16:33:53.448Z,90.00
2018-09-20T16:37:22.412Z,90.10
2018-09-20T16:40:35.346Z,90.80
2018-09-20T16:43:46.193Z,90.40
2018-09-20T16:46:57.533Z,90.80
2018-09-20T16:50:08.925Z,90.80
2018-09-20T16:53:20.980Z,91.20
2018-09-20T16:56:32.672Z,91.00
2018-09-20T16:59:43.466Z,91.20
2018-09-20T17:02:54.640Z,91.70
2018-09-20T17:06:06.363Z,91.40
2018-09-20T17:09:17.315Z,91.60
2018-09-20T17:12:28.227Z,91.70
2018-09-20T17:15:39.008Z,92.00
2018-09-20T17:18:49.870Z,92.40
2018-09-20T17:22:00.684Z,92.20
2018-09-20T17:25:11.428Z,92.90
2018-09-20T17:28:22.550Z,92.80
2018-09-20T17:31:33.412Z,93.00
2018-09-20T17:34:44.514Z,93.20
2018-09-20T17:37:56.920Z,93.10
2018-09-20T17:41:11.178Z,93.60
2018-09-20T17:44:22.780Z,93.50
2018-09-20T17:47:34.158Z,93.90
2018-09-20T17:50:45.775Z,94.50
2018-09-20T17:53:58.421Z,95.50
2018-09-20T17:57:10.787Z,96.30
2018-09-20T18:00:23.859Z,96.50
2018-09-20T18:03:35.196Z,96.60
2018-09-20T18:06:46.321Z,96.60
2018-09-20T18:09:57.338Z,97.30
2018-09-20T18:13:09.024Z,97.60
2018-09-20T18:16:19.972Z,98.00
2018-09-20T18:19:31.319Z,98.30
2018-09-20T18:22:42.648Z,98.90
2018-09-20T18:25:53.613Z,98.80
2018-09-20T18:29:04.379Z,99.00
2018-09-20T18:32:15.698Z,99.10
2018-09-20T18:35:27.229Z,99.40
2018-09-20T18:38:38.280Z,99.80
2018-09-20T18:41:50.055Z,99.90
2018-09-20T18:45:01.826Z,99.90
2018-09-20T18:48:13.877Z,99.90
2018-09-20T18:51:25.224Z,99.90
2018-09-20T18:54:36.169Z,99.90
2018-09-20T18:57:47.204Z,99.90
2018-09-20T19:00:58.229Z,99.90
2018-09-20T19:04:09.302Z,99.90
2018-09-20T19:07:20.409Z,99.90
2018-09-20T19:10:32.481Z,99.90
2018-09-20T19:13:44.424Z,99.90
2018-09-20T19:16:56.168Z,99.90
2018-09-20T19:20:08.955Z,99.90
2018-09-20T19:23:20.836Z,99.90
2018-09-20T19:26:32.495Z,99.90
2018-09-20T19:29:43.570Z,99.90
2018-09-20T19:32:55.364Z,99.90
2018-09-20T19:36:06.917Z,99.90
2018-09-20T19:39:18.255Z,99.90
2018-09-20T19:42:29.116Z,99.90
2018-09-20T19:45:40.603Z,99.90
2018-09-20T19:48:52.884Z,99.90
2018-09-20T19:52:04.451Z,99.90
2018-09-20T19:55:16.094Z,99.90
2018-09-20T19:58:27.086Z,99.90
2018-09-20T20:01:38.874Z,99.90
2018-09-20T20:04:49.897Z,99.90
2018-09-20T20:08:01.118Z,99.90
2018-09-20T20:11:12.832Z,99.90
2018-09-20T20:14:23.947Z,99.90
2018-09-20T20:17:36.170Z,99.90
2018-09-20T20:20:47.763Z,99.90
2018-09-20T20:23:59.406Z,99.90
2018-09-20T20:27:11.307Z,99.90
2018-09-20T20:30:22.382Z,99.90
2018-09-20T20:33:34.246Z,99.90
2018-09-20T20:36:46.158Z,99.90
2018-09-20T20:39:58.108Z,99.90
2018-09-20T20:43:09.914Z,99.90
2018-09-20T20:46:21.993Z,99.90
2018-09-20T20:49:33.984Z,99.90
2018-09-20T20:52:45.472Z,99.90
2018-09-20T20:55:57.267Z,99.90
2018-09-20T20:59:09.531Z,99.90
2018-09-20T21:02:21.063Z,99.90
2018-09-20T21:05:33.020Z,99.90
2018-09-20T21:08:45.366Z,99.90
2018-09-20T21:11:56.878Z,99.90
2018-09-20T21:15:08.571Z,99.90
2018-09-20T21:18:20.436Z,99.90
2018-09-20T21:21:32.331Z,99.90
2018-09-20T21:24:43.939Z,99.90
2018-09-20T21:27:55.999Z,99.90
2018-09-20T21:31:08.104Z,99.90
2018-09-20T21:34:19.741Z,99.90
2018-09-20T21:37:31.428Z,99.90
2018-09-20T21:40:43.440Z,99.90
2018-09-20T21:43:54.706Z,99.90
2018-09-20T21:47:06.849Z,99.90
2018-09-20T21:50:18.601Z,99.90
2018-09-20T21:53:30.043Z,99.90
2018-09-20T21:56:41.264Z,99.90
2018-09-20T21:59:52.966Z,99.90
2018-09-20T22:03:05.545Z,99.90
2018-09-20T22:06:17.473Z,99.90
2018-09-20T22:09:29.779Z,99.90
2018-09-20T22:12:41.247Z,99.90
2018-09-20T22:15:53.230Z,99.90
2018-09-20T22:19:05.143Z,99.90
2018-09-20T22:22:16.879Z,99.90
2018-09-20T22:25:30.310Z,99.90
2018-09-20T22:28:41.370Z,99.90
2018-09-20T22:31:52.363Z,99.90
2018-09-20T22:35:04.922Z,99.90
2018-09-20T22:38:16.388Z,99.90
2018-09-20T22:41:28.800Z,99.90
2018-09-20T22:44:40.110Z,99.90
2018-09-20T22:47:51.290Z,99.90
2018-09-20T22:51:02.706Z,99.90
2018-09-20T22:54:14.303Z,99.90
2018-09-20T22:57:25.322Z,99.90
2018-09-20T23:00:36.745Z,99.90
2018-09-20T23:03:48.500Z,99.90
2018-09-20T23:07:00.445Z,99.90
2018-09-20T23:10:12.373Z,99.90
2018-09-20T23:13:24.045Z,99.90
2018-09-20T23:16:35.137Z,99.90
2018-09-20T23:19:46.980Z,99.90
2018-09-20T23:22:58.961Z,99.90
2018-09-20T23:26:11.111Z,99.90
2018-09-20T23:29:22.799Z,99.90
2018-09-20T23:32:34.781Z,99.90
2018-09-20T23:35:46.750Z,99.90
2018-09-20T23:38:58.735Z,99.90
2018-09-20T23:42:10.724Z,99.90
2018-09-20T23:45:22.564Z,99.90
2018-09-20T23:48:34.452Z,99.90
2018-09-20T23:51:47.251Z,99.90
2018-09-20T23:54:58.304Z,99.90
2018-09-20T23:58:10.310Z,99.90
